Terminal Aerodrome Forecast
Issued by NWS

Home | Current Version | Previous Version | Text Only | Print | Product List | Glossary On
Versions: 1 2 3 4 5 6 7 8 9 10 11 12
000
FTUS44 KTSA 281100
TAFFYV
TAF
KFYV 281120Z 2812/2912 00000KT 5SM BR FEW250
     FM281300 18006KT P6SM SCT250
     FM281700 17008KT P6SM SCT050
     FM290200 15004KT P6SM SCT250
     FM290800 16005KT P6SM BKN100 PROB30 2909/2912 5SM -TSRA
      BKN070CB=

USA.gov is the U.S. government's official web portal to all federal, state and local government web resources and services.